»·PEaware :: N903DJ KAUS-KABQ

N903DJ :: KAUS-KABQ

FLIGHT INFORMATION

Flight Status: Arrived
Operator: Privately registered:
United States
More flights under this callsign
Pilot: Drew L. (13237)
Aircraft: BOEING 737-800
(B738)
More flights by this aircraft type
Origin: KAUS Austin Bergstrom Intl
United States
Destination: KABQ Albuquerque Intl Sunport
United States
More flights between these airports :: More routes between these airports
Route: AEROZ1 SJT CME LZZRD3
File this flight plan on PilotEdge
Remarks: ROGER
Altitude:
(Current/Filed)
34,000ft
Speed:
(Current/Filed)
0kts
Departed: 01-Nov-18 02:21 PM
Arrived: 01-Nov-18 04:01 PM
Distance/Time
Traveled:
537nm/1:40
Distance/Time
To Go:
Arrived

Flight Plot

Page will automatically refresh every two minutes.

Flight plan parsing failed; only flown route is shown


Map Options




Map Legend


Flown Route
Filed Route
Departure Airport
Arrival Airport
Navaid (VOR, NDB)
Fix

Horizontal Profiles

Position Reports

Time Latitude Longitude Heading Altitude Ground
Speed
01-Nov-18 14:12 30.189135 -97.661582 359 485ft 0kts
01-Nov-18 14:13 30.189135 -97.661582 359 485ft 0kts
01-Nov-18 14:14 30.189135 -97.661582 359 485ft 0kts
01-Nov-18 14:15 30.189135 -97.661582 359 485ft 0kts
01-Nov-18 14:16 30.189135 -97.661582 359 485ft 0kts
01-Nov-18 14:17 30.189135 -97.661582 359 485ft 0kts
01-Nov-18 14:18 30.189135 -97.661582 359 485ft 0kts
01-Nov-18 14:19 30.189135 -97.661582 359 485ft 0kts
01-Nov-18 14:20 30.189135 -97.661582 359 485ft 0kts
01-Nov-18 14:21 30.189135 -97.661582 359 485ft 0kts
01-Nov-18 14:22 30.190904 -97.660596 89 485ft 18kts
01-Nov-18 14:23 30.198619 -97.659824 358 485ft 42kts
01-Nov-18 14:24 30.203288 -97.657817 182 486ft 11kts
01-Nov-18 14:26 30.194180 -97.657608 178 486ft 130kts
01-Nov-18 14:27 30.151351 -97.656747 179 2539ft 161kts
01-Nov-18 14:28 30.115124 -97.680075 260 4623ft 174kts
01-Nov-18 14:29 30.127625 -97.735433 305 6661ft 207kts
01-Nov-18 14:30 30.166050 -97.800337 305 8387ft 262kts
01-Nov-18 14:31 30.207866 -97.871052 303 10607ft 288kts
01-Nov-18 14:32 30.253254 -97.947925 302 13291ft 296kts
01-Nov-18 14:33 30.299628 -98.026632 301 16153ft 303kts
01-Nov-18 14:34 30.347002 -98.107207 299 18823ft 312kts
01-Nov-18 14:35 30.395903 -98.190587 298 21205ft 322kts
01-Nov-18 14:36 30.446879 -98.277762 297 23373ft 332kts
01-Nov-18 14:37 30.490802 -98.371814 289 25293ft 337kts
01-Nov-18 14:38 30.533408 -98.470134 289 27005ft 347kts
01-Nov-18 14:39 30.577608 -98.571788 288 28550ft 358kts
01-Nov-18 14:40 30.622054 -98.674222 287 30124ft 363kts
01-Nov-18 14:41 30.667140 -98.778535 286 31928ft 360kts
01-Nov-18 14:42 30.711741 -98.881949 285 33546ft 358kts
01-Nov-18 14:43 30.756660 -98.986883 287 34062ft 377kts
01-Nov-18 14:44 30.804909 -99.099525 289 34056ft 398kts
01-Nov-18 14:45 30.854293 -99.214761 290 34047ft 398kts
01-Nov-18 14:46 30.903395 -99.329822 289 34044ft 400kts
01-Nov-18 14:47 30.952717 -99.445904 291 34040ft 402kts
01-Nov-18 14:48 31.002314 -99.562911 291 34037ft 406kts
01-Nov-18 14:49 31.052348 -99.681371 291 34053ft 410kts
01-Nov-18 14:50 31.101771 -99.798889 291 34049ft 409kts
01-Nov-18 14:51 31.151463 -99.917390 291 34043ft 409kts
01-Nov-18 14:52 31.201382 -100.036781 291 34037ft 409kts
01-Nov-18 14:53 31.251146 -100.156155 291 34034ft 409kts
01-Nov-18 14:54 31.300889 -100.275842 291 34032ft 409kts
01-Nov-18 14:55 31.350432 -100.395406 291 34031ft 409kts
01-Nov-18 14:56 31.402916 -100.513397 294 34029ft 411kts
01-Nov-18 14:57 31.456519 -100.631268 294 34029ft 410kts
01-Nov-18 14:58 31.510174 -100.748702 293 34039ft 410kts
01-Nov-18 14:59 31.564136 -100.866582 295 34037ft 408kts
01-Nov-18 15:00 31.617468 -100.982852 297 34037ft 405kts
01-Nov-18 15:01 31.671068 -101.099447 298 34039ft 408kts
01-Nov-18 15:02 31.725034 -101.216663 298 34053ft 407kts
01-Nov-18 15:03 31.778916 -101.333465 298 34059ft 407kts
01-Nov-18 15:04 31.832927 -101.450332 298 34058ft 407kts
01-Nov-18 15:05 31.886984 -101.567075 298 34064ft 408kts
01-Nov-18 15:06 31.941192 -101.683972 298 34069ft 408kts
01-Nov-18 15:07 31.995462 -101.800743 298 34069ft 407kts
01-Nov-18 15:08 32.049993 -101.917853 298 34060ft 408kts
01-Nov-18 15:09 32.104464 -102.034618 298 34053ft 408kts
01-Nov-18 15:10 32.159199 -102.151724 298 34054ft 408kts
01-Nov-18 15:11 32.214005 -102.268768 298 34053ft 408kts
01-Nov-18 15:12 32.268864 -102.385698 298 34062ft 408kts
01-Nov-18 15:13 32.323919 -102.502829 298 34086ft 408kts
01-Nov-18 15:14 32.378952 -102.619690 299 34085ft 408kts
01-Nov-18 15:15 32.435302 -102.735868 299 34093ft 408kts
01-Nov-18 15:16 32.492117 -102.851843 299 34071ft 408kts
01-Nov-18 15:17 32.548865 -102.968014 299 34047ft 408kts
01-Nov-18 15:18 32.604468 -103.082347 302 34043ft 393kts
01-Nov-18 15:19 32.658382 -103.193574 305 34041ft 389kts
01-Nov-18 15:20 32.712105 -103.304453 305 34040ft 389kts
01-Nov-18 15:21 32.765973 -103.415881 305 34037ft 389kts
01-Nov-18 15:22 32.819584 -103.527085 305 34036ft 389kts
01-Nov-18 15:23 32.873151 -103.638511 305 34034ft 389kts
01-Nov-18 15:24 32.926656 -103.750432 305 34042ft 390kts
01-Nov-18 15:25 32.979970 -103.862363 305 34050ft 390kts
01-Nov-18 15:26 33.033659 -103.975369 306 34054ft 394kts
01-Nov-18 15:27 33.087582 -104.089170 306 34051ft 397kts
01-Nov-18 15:28 33.142082 -104.204478 307 34070ft 401kts
01-Nov-18 15:29 33.196572 -104.320161 307 34069ft 399kts
01-Nov-18 15:30 33.250811 -104.435635 307 34068ft 400kts
01-Nov-18 15:31 33.305019 -104.551493 307 34066ft 400kts
01-Nov-18 15:32 33.368031 -104.656148 321 34066ft 387kts
01-Nov-18 15:33 33.445002 -104.745518 321 34065ft 387kts
01-Nov-18 15:33 33.509484 -104.820383 321 34064ft 387kts
01-Nov-18 15:35 33.598981 -104.924524 321 34062ft 384kts
01-Nov-18 15:36 33.674955 -105.013184 321 34059ft 379kts
01-Nov-18 15:37 33.749813 -105.100708 322 34057ft 374kts
01-Nov-18 15:37 33.811416 -105.172874 321 34056ft 372kts
01-Nov-18 15:39 33.898004 -105.274513 322 34054ft 373kts
01-Nov-18 15:40 33.973419 -105.363196 321 32987ft 385kts
01-Nov-18 15:41 34.050421 -105.454111 320 31115ft 394kts
01-Nov-18 15:41 34.114141 -105.529563 320 29617ft 401kts
01-Nov-18 15:42 34.186758 -105.615304 320 28026ft 408kts
01-Nov-18 15:44 34.282258 -105.725127 319 26010ft 419kts
01-Nov-18 15:44 34.348006 -105.812029 305 24550ft 434kts
01-Nov-18 15:45 34.383334 -105.948071 285 23817ft 427kts
01-Nov-18 15:46 34.399821 -106.086191 284 21820ft 410kts
01-Nov-18 15:47 34.414797 -106.215069 283 19775ft 367kts
01-Nov-18 15:48 34.428295 -106.332561 283 17741ft 339kts
01-Nov-18 15:49 34.440325 -106.438212 282 15726ft 307kts
01-Nov-18 15:50 34.453154 -106.536772 294 14970ft 293kts
01-Nov-18 15:51 34.506278 -106.606103 325 13992ft 280kts
01-Nov-18 15:52 34.572186 -106.655893 329 12989ft 270kts
01-Nov-18 15:53 34.634292 -106.686772 338 12970ft 234kts
01-Nov-18 15:54 34.697870 -106.716534 338 11503ft 253kts
01-Nov-18 15:55 34.764799 -106.746897 352 10023ft 261kts
01-Nov-18 15:56 34.823347 -106.773000 331 9933ft 194kts
01-Nov-18 15:57 34.870429 -106.801203 333 8645ft 190kts
01-Nov-18 15:58 34.916031 -106.783928 60 7992ft 206kts
01-Nov-18 15:59 34.944230 -106.724852 40 7488ft 195kts
01-Nov-18 16:00 34.978122 -106.682986 38 6376ft 150kts
01-Nov-18 16:01 35.006659 -106.649573 39 5744ft 147kts
01-Nov-18 16:02 35.033197 -106.617414 41 5323ft 95kts
01-Nov-18 16:03 35.036793 -106.614563 14 5323ft 3kts
01-Nov-18 16:04 35.039182 -106.618282 216 5323ft 15kts

Navigation Log

Ident Type
Flight plan parsing failed, navigation log unavailable